METAR - Iceland

Last updated 04.03.2021 - at. 16:16

SIGMET for the last six hours

BIRD SIGMET V04 VALID 041400/041700 BIRK- BIRD REYKJAVIK CTA VA ERUPTION MT KRISUVIK IMMINENT PSN N6355 W02204 VA CLD FCST N6355 W02204 SFC/FL170 MOV ESE 10KT
BIRD SIGMET V03 VALID 041100/041400 BIRK- BIRD REYKJAVIK CTA VA ERUPTION MT KRISUVIK IMMINENT PSN N6355 W02204 VA CLD FCST N6355 W02204 SFC/FL170 MOV SE 10KT

METAR from the last three hours

AerodromeTimeMessage
BIAR2021-03-04 16.00METAR BIAR 041600Z 19014KT 9999 FEW050 07/00 Q1030 R01/190095
BIAR2021-03-04 15.00METAR BIAR 041500Z 17010KT 9999 SCT049 06/00 Q1030
BIAR2021-03-04 14.00METAR BIAR 041400Z 19011KT 9999 FEW040 BKN065 05/00 Q1031
BIBD2021-03-04 15.47METAR BIBD 041547Z 24009KT 9999 FEW012 BKN020 06/04 Q1031
BIBD2021-03-04 15.00METAR BIBD 041500Z 23012KT 9999 SCT015 BKN020 06/04 Q1031
BIBD2021-03-04 14.00METAR BIBD 041400Z 23013KT 9999 SCT020 BKN025 06/04 Q1032
BIEG2021-03-04 16.00METAR BIEG 041600Z 20007KT CAVOK 05/M00 Q1030
BIEG2021-03-04 15.00METAR BIEG 041500Z 22011KT CAVOK 06/M00 Q1031
BIEG2021-03-04 14.00METAR BIEG 041400Z 21008KT CAVOK 06/00 Q1031
BIGR2021-03-04 16.00METAR BIGR 041600Z 25019KT 9999 OVC028 05/02 Q1029
BIGR2021-03-04 14.00METAR BIGR 041400Z 25021KT 9999 FEW020 SCT038 05/02 Q1030
BIHN2021-03-04 15.37METAR BIHN 041537Z VRB02KT CAVOK 04/M01 Q1032
BIHN2021-03-04 15.00METAR BIHN 041500Z VRB02KT CAVOK 04/M01 Q1032
BIHN2021-03-04 14.00METAR BIHN 041400Z 23005KT CAVOK 03/M01 Q1033
BIHU2021-03-04 16.00METAR BIHU 041600Z 18008KT 9999 FEW060 05/M00 Q1029
BIHU2021-03-04 15.00METAR BIHU 041500Z 18008KT 9999 SCT060 04/M00 Q1029
BIHU2021-03-04 14.00METAR BIHU 041400Z 17010KT 9999 SCT060 04/M00 Q1030
BIIS2021-03-04 16.00METAR BIIS 041600Z 06003KT 9999 SCT022 BKN030 05/03 Q1030
BIIS2021-03-04 15.00METAR BIIS 041500Z 05004KT 9999 SCT022 BKN028 04/02 Q1030
BIIS2021-03-04 14.00METAR BIIS 041400Z 05004KT 9999 SCT020 BKN025 04/02 Q1031
BIKF2021-03-04 16.00METAR BIKF 041600Z 15010KT 9999 SCT019 BKN054 06/05 Q1032
BIKF2021-03-04 15.30METAR BIKF 041530Z 15010KT 9999 SCT020 BKN054 06/04 Q1032
BIKF2021-03-04 15.00METAR BIKF 041500Z 15011KT 9999 FEW009 BKN024 06/04 Q1033
BIKF2021-03-04 14.30METAR BIKF 041430Z 14010KT 9999 FEW009 BKN023 06/05 Q1033
BIKF2021-03-04 14.00METAR BIKF 041400Z 15010KT 9999 FEW015 BKN023 06/05 Q1034
BIKF2021-03-04 13.30METAR BIKF 041330Z 14011KT 9999 BKN022 06/05 Q1034
BIRK2021-03-04 16.00METAR BIRK 041600Z 05005KT 9999 FEW016 BKN024 05/03 Q1033
BIRK2021-03-04 15.00METAR BIRK 041500Z 04005KT 9999 SCT016 BKN025 BKN033 05/03 Q1033
BIRK2021-03-04 14.00METAR BIRK 041400Z 05005KT 9999 FEW020 SCT032 BKN062 05/03 Q1034
BIVM2021-03-04 16.00METAR BIVM 041600Z 16006KT 130V190 9999 SCT021 BKN030 05/02 Q1033
BIVM2021-03-04 15.00METAR BIVM 041500Z 20006KT 9999 FEW015 BKN030 06/02 Q1033
BIVM2021-03-04 14.11METAR BIVM 041411Z 20006KT 9999 SCT015 BKN030 06/02 Q1034
BIVO2021-03-04 15.00METAR BIVO 041500Z 21014KT 9999 BKN050 06/01 Q1030





Other related web sites


This website is built with Eplica CMS